createdAt,value
2019-05-23T00:01:05.580Z,3.10
2019-05-23T00:06:34.656Z,2.92
2019-05-23T00:12:11.848Z,3.30
2019-05-23T00:17:27.575Z,3.20
2019-05-23T00:22:32.471Z,3.37
2019-05-23T00:27:38.929Z,3.22
2019-05-23T00:32:49.721Z,3.40
2019-05-23T00:37:55.656Z,3.15
2019-05-23T00:43:02.574Z,2.95
2019-05-23T00:48:07.974Z,3.20
2019-05-23T00:53:13.375Z,3.62
2019-05-23T00:58:19.413Z,3.30
2019-05-23T01:03:31.072Z,3.33
2019-05-23T01:08:37.006Z,3.40
2019-05-23T01:13:42.224Z,2.80
2019-05-23T01:19:02.274Z,3.15
2019-05-23T01:24:24.524Z,3.33
2019-05-23T01:29:37.717Z,3.00
2019-05-23T01:34:40.575Z,3.10
2019-05-23T01:39:46.363Z,3.27
2019-05-23T01:44:52.062Z,2.98
2019-05-23T01:49:56.834Z,3.15
2019-05-23T01:55:01.762Z,3.75
2019-05-23T02:00:15.184Z,3.50
2019-05-23T02:05:20.302Z,3.27
2019-05-23T02:10:26.146Z,3.60
2019-05-23T02:15:32.922Z,3.40
2019-05-23T02:20:37.954Z,3.05
2019-05-23T02:25:42.958Z,3.17
2019-05-23T02:31:04.410Z,3.20
2019-05-23T02:36:13.204Z,3.28
2019-05-23T02:41:46.252Z,3.70
2019-05-23T02:46:59.626Z,4.33
2019-05-23T02:52:21.925Z,3.50
2019-05-23T02:57:28.321Z,3.47
2019-05-23T03:02:56.406Z,3.60
2019-05-23T03:08:08.256Z,3.72
2019-05-23T03:13:13.676Z,3.30
2019-05-23T03:18:20.689Z,2.83
2019-05-23T03:23:26.184Z,3.70
2019-05-23T03:28:38.857Z,3.40
2019-05-23T03:34:04.394Z,3.53
2019-05-23T03:39:11.474Z,3.60
2019-05-23T03:44:17.339Z,3.33
2019-05-23T03:49:24.785Z,3.33
2019-05-23T03:54:29.745Z,3.33
2019-05-23T03:59:35.060Z,3.67
2019-05-23T04:04:40.480Z,3.27
2019-05-23T04:09:45.785Z,3.55
2019-05-23T04:14:52.138Z,4.00
2019-05-23T04:19:57.179Z,4.05
2019-05-23T04:25:02.721Z,4.70
2019-05-23T04:30:08.376Z,5.15
2019-05-23T04:35:20.452Z,4.20
2019-05-23T04:40:25.682Z,4.53
2019-05-23T04:45:31.339Z,4.10
2019-05-23T04:50:36.560Z,4.70
2019-05-23T04:55:42.265Z,4.25
2019-05-23T05:00:47.411Z,4.95
2019-05-23T05:05:52.759Z,4.65
2019-05-23T05:10:58.042Z,4.55
2019-05-23T05:16:13.054Z,4.30
2019-05-23T05:21:26.771Z,4.00
2019-05-23T05:26:31.935Z,4.20
2019-05-23T05:31:37.924Z,3.87
2019-05-23T05:36:43.058Z,3.70
2019-05-23T05:41:48.176Z,3.33
2019-05-23T05:46:53.302Z,3.50
2019-05-23T05:51:58.166Z,3.35
2019-05-23T05:57:03.527Z,3.50
2019-05-23T06:02:11.642Z,3.27
2019-05-23T06:07:26.919Z,3.23
2019-05-23T06:12:41.465Z,3.30
2019-05-23T06:17:48.773Z,3.00
2019-05-23T06:22:53.795Z,3.12
2019-05-23T06:27:59.782Z,2.70
2019-05-23T06:33:21.741Z,3.05
2019-05-23T06:38:13.243Z,2.72
2019-05-23T06:43:18.810Z,2.60
2019-05-23T06:48:26.691Z,2.47
2019-05-23T06:53:31.678Z,2.65
2019-05-23T06:58:44.049Z,2.90
2019-05-23T07:03:50.394Z,2.45
2019-05-23T07:08:55.299Z,1.82
2019-05-23T07:14:00.164Z,1.92
2019-05-23T07:19:06.228Z,1.77
2019-05-23T07:24:11.213Z,1.92
2019-05-23T07:29:16.293Z,2.05
2019-05-23T07:34:22.150Z,1.70
2019-05-23T07:39:27.265Z,1.77
2019-05-23T07:44:45.940Z,1.55
2019-05-23T07:49:38.823Z,2.12
2019-05-23T07:54:54.309Z,1.92
2019-05-23T08:00:08.764Z,1.75
2019-05-23T08:05:14.627Z,2.00
2019-05-23T08:10:33.011Z,2.23
2019-05-23T08:15:41.086Z,2.20
2019-05-23T08:20:46.615Z,2.50
2019-05-23T08:25:52.084Z,2.27
2019-05-23T08:30:57.792Z,2.35
2019-05-23T08:36:09.278Z,2.60
2019-05-23T08:41:14.783Z,2.40
2019-05-23T08:46:20.316Z,2.47
2019-05-23T08:51:25.154Z,2.10
2019-05-23T08:56:30.291Z,2.55
2019-05-23T09:01:36.321Z,1.85
2019-05-23T09:06:50.264Z,1.80
2019-05-23T09:11:57.020Z,2.33
2019-05-23T09:17:01.960Z,1.85
2019-05-23T09:22:06.882Z,1.60
2019-05-23T09:27:11.998Z,1.32
2019-05-23T09:32:17.357Z,2.08
2019-05-23T09:37:24.624Z,1.72
2019-05-23T09:42:29.614Z,1.70
2019-05-23T09:47:34.396Z,1.50
2019-05-23T09:52:39.601Z,1.60
2019-05-23T09:57:44.777Z,1.70
2019-05-23T10:02:51.260Z,1.50
2019-05-23T10:07:55.988Z,1.40
2019-05-23T10:13:06.711Z,1.67
2019-05-23T10:18:15.827Z,1.65
2019-05-23T10:23:20.635Z,1.55
2019-05-23T10:28:25.766Z,1.50
2019-05-23T10:33:38.402Z,1.70
2019-05-23T10:38:43.341Z,1.55
2019-05-23T10:43:48.135Z,2.08
2019-05-23T10:48:53.460Z,2.17
2019-05-23T10:53:58.420Z,1.92
2019-05-23T10:59:03.667Z,1.82
2019-05-23T11:04:08.845Z,1.80
2019-05-23T11:09:14.638Z,2.02
2019-05-23T11:14:32.308Z,1.80
2019-05-23T11:19:40.636Z,1.32
2019-05-23T11:24:45.629Z,2.50
2019-05-23T11:29:50.433Z,1.47
2019-05-23T11:34:55.385Z,1.77
2019-05-23T11:40:00.666Z,1.98
2019-05-23T11:45:06.462Z,2.40
2019-05-23T11:50:11.744Z,2.07
2019-05-23T11:55:16.703Z,1.80
2019-05-23T12:01:20.801Z,2.00
2019-05-23T12:06:33.596Z,1.90
2019-05-23T12:11:42.437Z,1.72
2019-05-23T12:16:45.342Z,1.72
2019-05-23T12:21:51.474Z,1.70
2019-05-23T12:26:56.623Z,1.57
2019-05-23T12:32:04.857Z,2.02
2019-05-23T12:37:19.952Z,1.70
2019-05-23T12:42:29.354Z,1.67
2019-05-23T12:47:42.764Z,1.80
2019-05-23T12:52:47.780Z,1.65
2019-05-23T12:57:52.944Z,1.90
2019-05-23T13:02:57.988Z,2.00
2019-05-23T13:08:07.292Z,1.67
2019-05-23T13:13:12.559Z,1.92
2019-05-23T13:18:20.266Z,1.57
2019-05-23T13:23:25.277Z,1.70
2019-05-23T13:28:31.080Z,1.70
2019-05-23T13:33:36.056Z,1.30
2019-05-23T13:38:41.318Z,1.47
2019-05-23T13:43:46.543Z,1.20
2019-05-23T13:48:51.560Z,1.20
2019-05-23T13:53:56.480Z,1.50
2019-05-23T13:59:01.332Z,1.22
2019-05-23T14:04:06.285Z,2.00
2019-05-23T14:09:12.822Z,1.42
2019-05-23T14:14:21.155Z,1.45
2019-05-23T14:19:29.331Z,1.87
2019-05-23T14:24:38.862Z,1.80
2019-05-23T14:29:43.929Z,1.82
2019-05-23T14:34:48.993Z,1.60
2019-05-23T14:39:59.850Z,1.45
2019-05-23T14:45:11.264Z,1.30
2019-05-23T14:50:37.620Z,1.50
2019-05-23T14:55:42.874Z,1.75
2019-05-23T15:00:52.953Z,1.60
2019-05-23T15:05:58.356Z,1.57
2019-05-23T15:11:03.866Z,1.20
2019-05-23T15:16:10.350Z,1.50
2019-05-23T15:21:15.573Z,1.37
2019-05-23T15:26:23.652Z,1.10
2019-05-23T15:31:40.798Z,1.07
2019-05-23T15:36:45.885Z,1.42
2019-05-23T15:41:51.143Z,1.15
2019-05-23T15:46:56.346Z,1.37
2019-05-23T15:52:12.951Z,1.25
2019-05-23T15:57:22.763Z,1.30
2019-05-23T16:02:36.093Z,1.35
2019-05-23T16:07:40.977Z,1.17
2019-05-23T16:12:45.829Z,1.30
2019-05-23T16:17:50.766Z,1.20
2019-05-23T16:22:57.264Z,1.10
2019-05-23T16:28:02.134Z,1.30
2019-05-23T16:33:07.350Z,1.20
2019-05-23T16:38:13.201Z,1.40
2019-05-23T16:43:18.285Z,1.25
2019-05-23T16:48:23.355Z,1.00
2019-05-23T16:53:29.968Z,1.30
2019-05-23T16:59:02.728Z,1.10
2019-05-23T17:04:12.543Z,1.10
2019-05-23T17:09:31.271Z,1.00
2019-05-23T17:14:38.443Z,0.93
2019-05-23T17:20:18.582Z,1.12
2019-05-23T17:25:26.442Z,1.10
2019-05-23T17:30:50.547Z,1.17
2019-05-23T17:36:02.710Z,1.20
2019-05-23T17:41:08.427Z,1.40
2019-05-23T17:46:13.325Z,0.95
2019-05-23T17:51:18.371Z,1.00
2019-05-23T17:56:24.365Z,1.20
2019-05-23T18:01:35.527Z,1.60
2019-05-23T18:06:41.505Z,1.40
2019-05-23T18:11:46.532Z,1.47
2019-05-23T18:16:51.696Z,1.40
2019-05-23T18:21:58.643Z,1.40
2019-05-23T18:27:03.696Z,1.50
2019-05-23T18:32:12.420Z,1.12
2019-05-23T18:37:18.150Z,1.50
2019-05-23T18:42:24.043Z,1.47
2019-05-23T18:47:37.782Z,1.32
2019-05-23T18:52:42.670Z,1.42
2019-05-23T18:57:49.829Z,1.30
2019-05-23T19:03:07.183Z,1.50
2019-05-23T19:08:12.219Z,1.37
2019-05-23T19:13:17.386Z,1.55
2019-05-23T19:18:23.085Z,1.40
2019-05-23T19:23:29.094Z,1.72
2019-05-23T19:28:34.676Z,1.80
2019-05-23T19:33:40.585Z,1.60
2019-05-23T19:38:51.580Z,1.60
2019-05-23T19:43:56.846Z,1.80
2019-05-23T19:49:02.724Z,1.90
2019-05-23T19:54:08.154Z,1.82
2019-05-23T19:59:13.096Z,2.02
2019-05-23T20:04:19.791Z,2.10
2019-05-23T20:09:24.768Z,2.15
2019-05-23T20:14:29.757Z,2.20
2019-05-23T20:19:35.653Z,2.00
2019-05-23T20:24:41.174Z,2.25
2019-05-23T20:29:46.401Z,2.00
2019-05-23T20:34:52.171Z,1.98
2019-05-23T20:39:57.007Z,2.30
2019-05-23T20:45:03.694Z,2.40
2019-05-23T20:50:10.020Z,2.50
2019-05-23T20:55:15.155Z,2.58
2019-05-23T21:00:25.976Z,2.60
2019-05-23T21:05:31.574Z,2.65
2019-05-23T21:10:49.982Z,2.67
2019-05-23T21:16:04.320Z,2.60
2019-05-23T21:21:09.305Z,2.40
2019-05-23T21:26:14.295Z,2.87
2019-05-23T21:31:22.679Z,2.77
2019-05-23T21:36:28.652Z,3.10
2019-05-23T21:41:33.544Z,3.17
2019-05-23T21:46:38.361Z,2.50
2019-05-23T21:51:43.198Z,2.90
2019-05-23T21:56:48.014Z,3.17
2019-05-23T22:02:18.280Z,3.12
2019-05-23T22:07:23.925Z,2.55
2019-05-23T22:12:28.803Z,3.05
2019-05-23T22:17:34.533Z,2.92
2019-05-23T22:22:39.306Z,3.50
2019-05-23T22:27:44.642Z,3.30
2019-05-23T22:32:50.068Z,3.52
2019-05-23T22:37:55.072Z,3.33
2019-05-23T22:43:00.039Z,3.20
2019-05-23T22:48:06.066Z,3.90
2019-05-23T22:53:11.198Z,4.12
2019-05-23T22:58:16.466Z,3.67
2019-05-23T23:03:21.250Z,3.72
2019-05-23T23:08:27.552Z,3.98
2019-05-23T23:13:38.821Z,3.85
2019-05-23T23:18:39.306Z,4.20
2019-05-23T23:23:44.117Z,4.53
2019-05-23T23:28:49.110Z,4.25
2019-05-23T23:33:54.288Z,4.45
2019-05-23T23:38:59.393Z,3.72
2019-05-23T23:44:05.269Z,4.25
2019-05-23T23:49:28.208Z,3.92
2019-05-23T23:54:51.100Z,3.20
2019-05-23T23:59:55.167Z,3.77
